sensor_id;sensor_type;location;lat;lon;timestamp;P1;durP1;ratioP1;P2;durP2;ratioP2
51949;SDS011;37974;53.218;6.640;2023-12-04T00:00:46;943.92;;;860.45;;
51949;SDS011;37974;53.218;6.640;2023-12-04T00:03:12;1041.28;;;935.40;;
51949;SDS011;37974;53.218;6.640;2023-12-04T00:05:38;975.50;;;886.53;;
51949;SDS011;37974;53.218;6.640;2023-12-04T00:08:03;1106.47;;;987.08;;
51949;SDS011;37974;53.218;6.640;2023-12-04T00:10:29;1003.40;;;910.97;;
51949;SDS011;37974;53.218;6.640;2023-12-04T00:12:55;1086.75;;;970.80;;
51949;SDS011;37974;53.218;6.640;2023-12-04T00:15:20;1039.30;;;937.15;;
51949;SDS011;37974;53.218;6.640;2023-12-04T00:17:46;1025.60;;;925.55;;
51949;SDS011;37974;53.218;6.640;2023-12-04T00:20:12;1005.72;;;912.65;;
51949;SDS011;37974;53.218;6.640;2023-12-04T00:22:38;1078.43;;;966.00;;
51949;SDS011;37974;53.218;6.640;2023-12-04T00:25:04;1032.88;;;932.85;;
51949;SDS011;37974;53.218;6.640;2023-12-04T00:27:31;1068.35;;;959.53;;
51949;SDS011;37974;53.218;6.640;2023-12-04T00:29:57;1039.70;;;936.03;;
51949;SDS011;37974;53.218;6.640;2023-12-04T00:32:23;989.40;;;897.85;;
51949;SDS011;37974;53.218;6.640;2023-12-04T00:34:49;1089.60;;;975.50;;
51949;SDS011;37974;53.218;6.640;2023-12-04T00:37:15;970.95;;;885.00;;
51949;SDS011;37974;53.218;6.640;2023-12-04T00:39:40;1084.70;;;970.13;;
51949;SDS011;37974;53.218;6.640;2023-12-04T00:42:06;1004.15;;;910.80;;
51949;SDS011;37974;53.218;6.640;2023-12-04T00:44:32;1069.93;;;962.03;;
51949;SDS011;37974;53.218;6.640;2023-12-04T00:46:58;1091.50;;;974.83;;
51949;SDS011;37974;53.218;6.640;2023-12-04T00:49:23;1056.80;;;952.10;;
51949;SDS011;37974;53.218;6.640;2023-12-04T00:51:49;1030.45;;;934.40;;
51949;SDS011;37974;53.218;6.640;2023-12-04T00:54:15;1019.88;;;924.45;;
51949;SDS011;37974;53.218;6.640;2023-12-04T00:56:41;1047.80;;;946.35;;
51949;SDS011;37974;53.218;6.640;2023-12-04T00:59:08;1012.35;;;915.40;;
51949;SDS011;37974;53.218;6.640;2023-12-04T01:01:35;1019.20;;;922.63;;
51949;SDS011;37974;53.218;6.640;2023-12-04T01:04:02;987.58;;;896.05;;
51949;SDS011;37974;53.218;6.640;2023-12-04T01:06:28;1051.68;;;947.40;;
51949;SDS011;37974;53.218;6.640;2023-12-04T01:08:54;1052.10;;;946.92;;
51949;SDS011;37974;53.218;6.640;2023-12-04T01:11:20;1087.15;;;973.13;;
51949;SDS011;37974;53.218;6.640;2023-12-04T01:13:46;979.22;;;890.83;;
51949;SDS011;37974;53.218;6.640;2023-12-04T01:16:13;1061.85;;;952.70;;
51949;SDS011;37974;53.218;6.640;2023-12-04T01:18:39;1064.68;;;954.75;;
51949;SDS011;37974;53.218;6.640;2023-12-04T01:21:07;1070.43;;;960.55;;
51949;SDS011;37974;53.218;6.640;2023-12-04T01:23:35;1004.55;;;910.25;;
51949;SDS011;37974;53.218;6.640;2023-12-04T01:26:01;977.78;;;891.08;;
51949;SDS011;37974;53.218;6.640;2023-12-04T01:28:27;1061.50;;;953.15;;
51949;SDS011;37974;53.218;6.640;2023-12-04T01:30:53;966.67;;;880.58;;
51949;SDS011;37974;53.218;6.640;2023-12-04T01:33:19;978.58;;;890.83;;
51949;SDS011;37974;53.218;6.640;2023-12-04T01:35:44;983.30;;;894.85;;
51949;SDS011;37974;53.218;6.640;2023-12-04T01:38:10;984.38;;;895.45;;
51949;SDS011;37974;53.218;6.640;2023-12-04T01:40:36;987.97;;;898.00;;
51949;SDS011;37974;53.218;6.640;2023-12-04T01:43:02;975.00;;;888.42;;
51949;SDS011;37974;53.218;6.640;2023-12-04T01:45:27;1067.32;;;958.65;;
51949;SDS011;37974;53.218;6.640;2023-12-04T01:47:53;1065.80;;;956.47;;
51949;SDS011;37974;53.218;6.640;2023-12-04T01:50:19;1059.20;;;952.45;;
51949;SDS011;37974;53.218;6.640;2023-12-04T01:52:46;1030.70;;;935.20;;
51949;SDS011;37974;53.218;6.640;2023-12-04T01:55:12;1061.05;;;951.38;;
51949;SDS011;37974;53.218;6.640;2023-12-04T01:57:40;1036.38;;;934.45;;
51949;SDS011;37974;53.218;6.640;2023-12-04T02:00:06;1072.28;;;960.17;;
51949;SDS011;37974;53.218;6.640;2023-12-04T02:02:38;1046.80;;;941.90;;
51949;SDS011;37974;53.218;6.640;2023-12-04T02:05:05;1048.45;;;945.35;;
51949;SDS011;37974;53.218;6.640;2023-12-04T02:07:33;1052.13;;;946.80;;
51949;SDS011;37974;53.218;6.640;2023-12-04T02:09:59;969.15;;;883.42;;
51949;SDS011;37974;53.218;6.640;2023-12-04T02:12:25;997.67;;;905.95;;
51949;SDS011;37974;53.218;6.640;2023-12-04T02:14:51;1079.18;;;967.15;;
51949;SDS011;37974;53.218;6.640;2023-12-04T02:17:17;995.17;;;905.00;;
51949;SDS011;37974;53.218;6.640;2023-12-04T02:19:44;1016.47;;;920.05;;
51949;SDS011;37974;53.218;6.640;2023-12-04T02:22:10;1021.53;;;924.42;;
51949;SDS011;37974;53.218;6.640;2023-12-04T02:24:35;1005.55;;;912.75;;
51949;SDS011;37974;53.218;6.640;2023-12-04T02:27:04;1069.03;;;959.10;;
51949;SDS011;37974;53.218;6.640;2023-12-04T02:29:41;974.65;;;886.03;;
51949;SDS011;37974;53.218;6.640;2023-12-04T02:32:14;1011.15;;;916.95;;
51949;SDS011;37974;53.218;6.640;2023-12-04T02:34:42;1050.35;;;945.05;;
51949;SDS011;37974;53.218;6.640;2023-12-04T02:37:10;1078.82;;;967.03;;
51949;SDS011;37974;53.218;6.640;2023-12-04T02:39:38;1023.00;;;927.28;;
51949;SDS011;37974;53.218;6.640;2023-12-04T02:42:03;968.90;;;882.03;;
51949;SDS011;37974;53.218;6.640;2023-12-04T02:44:29;1002.83;;;912.40;;
51949;SDS011;37974;53.218;6.640;2023-12-04T02:46:55;1009.35;;;914.83;;
51949;SDS011;37974;53.218;6.640;2023-12-04T02:49:21;1059.60;;;952.13;;
51949;SDS011;37974;53.218;6.640;2023-12-04T02:51:47;1054.80;;;948.90;;
51949;SDS011;37974;53.218;6.640;2023-12-04T02:54:12;1065.55;;;960.22;;
51949;SDS011;37974;53.218;6.640;2023-12-04T02:56:38;976.42;;;888.13;;
51949;SDS011;37974;53.218;6.640;2023-12-04T02:59:04;990.03;;;898.67;;
51949;SDS011;37974;53.218;6.640;2023-12-04T03:01:29;1022.85;;;925.92;;
51949;SDS011;37974;53.218;6.640;2023-12-04T03:03:55;986.38;;;897.67;;
51949;SDS011;37974;53.218;6.640;2023-12-04T03:06:21;1054.78;;;954.25;;
51949;SDS011;37974;53.218;6.640;2023-12-04T03:08:46;975.60;;;887.47;;
51949;SDS011;37974;53.218;6.640;2023-12-04T03:11:12;1056.43;;;950.63;;
51949;SDS011;37974;53.218;6.640;2023-12-04T03:13:38;986.25;;;897.22;;
51949;SDS011;37974;53.218;6.640;2023-12-04T03:16:03;1033.00;;;932.35;;
51949;SDS011;37974;53.218;6.640;2023-12-04T03:18:29;999.42;;;907.90;;
51949;SDS011;37974;53.218;6.640;2023-12-04T03:20:55;970.53;;;884.30;;
51949;SDS011;37974;53.218;6.640;2023-12-04T03:23:21;980.05;;;891.25;;
51949;SDS011;37974;53.218;6.640;2023-12-04T03:25:46;997.88;;;908.03;;
51949;SDS011;37974;53.218;6.640;2023-12-04T03:28:12;966.38;;;881.38;;
51949;SDS011;37974;53.218;6.640;2023-12-04T03:30:40;999.88;;;908.30;;
51949;SDS011;37974;53.218;6.640;2023-12-04T03:33:08;1040.15;;;937.55;;
51949;SDS011;37974;53.218;6.640;2023-12-04T03:35:34;1010.85;;;918.67;;
51949;SDS011;37974;53.218;6.640;2023-12-04T03:38:00;987.58;;;898.25;;
51949;SDS011;37974;53.218;6.640;2023-12-04T03:40:25;997.83;;;905.33;;
51949;SDS011;37974;53.218;6.640;2023-12-04T03:42:52;985.00;;;895.45;;
51949;SDS011;37974;53.218;6.640;2023-12-04T03:45:17;990.72;;;900.83;;
51949;SDS011;37974;53.218;6.640;2023-12-04T03:47:43;972.13;;;883.75;;
51949;SDS011;37974;53.218;6.640;2023-12-04T03:50:09;992.67;;;900.08;;
51949;SDS011;37974;53.218;6.640;2023-12-04T03:52:34;1040.03;;;936.53;;
51949;SDS011;37974;53.218;6.640;2023-12-04T03:55:00;1008.53;;;915.28;;
51949;SDS011;37974;53.218;6.640;2023-12-04T03:57:26;1026.45;;;928.28;;
51949;SDS011;37974;53.218;6.640;2023-12-04T03:59:51;993.35;;;903.97;;
51949;SDS011;37974;53.218;6.640;2023-12-04T04:02:17;1036.78;;;936.35;;
51949;SDS011;37974;53.218;6.640;2023-12-04T04:04:43;1012.63;;;919.53;;
51949;SDS011;37974;53.218;6.640;2023-12-04T04:07:08;997.33;;;906.65;;
51949;SDS011;37974;53.218;6.640;2023-12-04T04:09:34;1007.90;;;913.30;;
51949;SDS011;37974;53.218;6.640;2023-12-04T04:12:00;993.80;;;903.25;;
51949;SDS011;37974;53.218;6.640;2023-12-04T04:14:25;979.25;;;890.25;;
51949;SDS011;37974;53.218;6.640;2023-12-04T04:16:51;1043.22;;;941.95;;
51949;SDS011;37974;53.218;6.640;2023-12-04T04:19:17;1061.18;;;957.90;;
51949;SDS011;37974;53.218;6.640;2023-12-04T04:21:42;1050.40;;;946.80;;
51949;SDS011;37974;53.218;6.640;2023-12-04T04:24:08;1030.38;;;932.83;;
51949;SDS011;37974;53.218;6.640;2023-12-04T04:26:34;1001.58;;;909.58;;
51949;SDS011;37974;53.218;6.640;2023-12-04T04:28:59;1010.03;;;915.78;;
51949;SDS011;37974;53.218;6.640;2023-12-04T04:31:25;1028.40;;;931.13;;
51949;SDS011;37974;53.218;6.640;2023-12-04T04:33:51;977.50;;;890.03;;
51949;SDS011;37974;53.218;6.640;2023-12-04T04:36:16;972.60;;;885.90;;
51949;SDS011;37974;53.218;6.640;2023-12-04T04:38:42;1032.50;;;934.85;;
51949;SDS011;37974;53.218;6.640;2023-12-04T04:41:12;1018.45;;;920.80;;
51949;SDS011;37974;53.218;6.640;2023-12-04T04:43:40;1055.25;;;952.33;;
51949;SDS011;37974;53.218;6.640;2023-12-04T04:46:07;995.60;;;905.03;;
51949;SDS011;37974;53.218;6.640;2023-12-04T04:48:32;960.47;;;876.00;;
51949;SDS011;37974;53.218;6.640;2023-12-04T04:50:58;984.55;;;896.78;;
51949;SDS011;37974;53.218;6.640;2023-12-04T04:53:24;977.13;;;889.13;;
51949;SDS011;37974;53.218;6.640;2023-12-04T04:55:50;987.47;;;896.85;;
51949;SDS011;37974;53.218;6.640;2023-12-04T04:58:16;1002.15;;;908.55;;
51949;SDS011;37974;53.218;6.640;2023-12-04T05:00:42;1018.10;;;923.55;;
51949;SDS011;37974;53.218;6.640;2023-12-04T05:03:08;952.90;;;869.33;;
51949;SDS011;37974;53.218;6.640;2023-12-04T05:05:34;951.72;;;867.80;;
51949;SDS011;37974;53.218;6.640;2023-12-04T05:08:00;956.08;;;871.58;;
51949;SDS011;37974;53.218;6.640;2023-12-04T05:10:25;975.63;;;887.83;;
51949;SDS011;37974;53.218;6.640;2023-12-04T05:12:51;969.42;;;882.38;;
51949;SDS011;37974;53.218;6.640;2023-12-04T05:15:17;937.05;;;856.20;;
51949;SDS011;37974;53.218;6.640;2023-12-04T05:17:43;959.22;;;873.53;;
51949;SDS011;37974;53.218;6.640;2023-12-04T05:20:08;984.75;;;894.92;;
51949;SDS011;37974;53.218;6.640;2023-12-04T05:22:34;972.22;;;885.83;;
51949;SDS011;37974;53.218;6.640;2023-12-04T05:25:00;1006.90;;;914.53;;
51949;SDS011;37974;53.218;6.640;2023-12-04T05:27:26;954.33;;;870.75;;
51949;SDS011;37974;53.218;6.640;2023-12-04T05:29:52;954.85;;;870.70;;
51949;SDS011;37974;53.218;6.640;2023-12-04T05:32:18;942.28;;;860.50;;
51949;SDS011;37974;53.218;6.640;2023-12-04T05:34:43;952.25;;;870.03;;
51949;SDS011;37974;53.218;6.640;2023-12-04T05:37:09;920.15;;;840.35;;
51949;SDS011;37974;53.218;6.640;2023-12-04T05:39:35;933.65;;;852.95;;
51949;SDS011;37974;53.218;6.640;2023-12-04T05:42:00;913.25;;;836.28;;
51949;SDS011;37974;53.218;6.640;2023-12-04T05:44:26;923.10;;;842.45;;
51949;SDS011;37974;53.218;6.640;2023-12-04T05:46:52;901.97;;;825.85;;
51949;SDS011;37974;53.218;6.640;2023-12-04T05:49:17;906.63;;;831.53;;
51949;SDS011;37974;53.218;6.640;2023-12-04T05:51:43;925.38;;;845.25;;
51949;SDS011;37974;53.218;6.640;2023-12-04T05:54:09;890.53;;;816.75;;
51949;SDS011;37974;53.218;6.640;2023-12-04T05:56:34;859.80;;;789.20;;
51949;SDS011;37974;53.218;6.640;2023-12-04T05:59:00;905.28;;;828.75;;
51949;SDS011;37974;53.218;6.640;2023-12-04T06:01:27;909.63;;;833.35;;
51949;SDS011;37974;53.218;6.640;2023-12-04T06:03:52;945.00;;;862.50;;
51949;SDS011;37974;53.218;6.640;2023-12-04T06:06:18;911.13;;;834.53;;
51949;SDS011;37974;53.218;6.640;2023-12-04T06:08:44;902.92;;;826.97;;
51949;SDS011;37974;53.218;6.640;2023-12-04T06:11:09;878.50;;;806.00;;
51949;SDS011;37974;53.218;6.640;2023-12-04T06:13:35;915.67;;;837.30;;
51949;SDS011;37974;53.218;6.640;2023-12-04T06:16:01;922.65;;;843.17;;
51949;SDS011;37974;53.218;6.640;2023-12-04T06:18:27;916.80;;;838.80;;
51949;SDS011;37974;53.218;6.640;2023-12-04T06:20:53;897.95;;;823.08;;
51949;SDS011;37974;53.218;6.640;2023-12-04T06:23:18;897.70;;;822.70;;
51949;SDS011;37974;53.218;6.640;2023-12-04T06:25:44;895.83;;;821.80;;
51949;SDS011;37974;53.218;6.640;2023-12-04T06:28:10;947.25;;;866.50;;
51949;SDS011;37974;53.218;6.640;2023-12-04T06:30:36;930.25;;;850.90;;
51949;SDS011;37974;53.218;6.640;2023-12-04T06:33:02;957.05;;;873.58;;
51949;SDS011;37974;53.218;6.640;2023-12-04T06:35:28;905.15;;;827.28;;
51949;SDS011;37974;53.218;6.640;2023-12-04T06:37:54;871.17;;;800.35;;
51949;SDS011;37974;53.218;6.640;2023-12-04T06:40:21;905.17;;;829.97;;
51949;SDS011;37974;53.218;6.640;2023-12-04T06:42:47;892.22;;;817.13;;
51949;SDS011;37974;53.218;6.640;2023-12-04T06:45:14;887.55;;;812.38;;
51949;SDS011;37974;53.218;6.640;2023-12-04T06:47:40;887.33;;;813.88;;
51949;SDS011;37974;53.218;6.640;2023-12-04T06:50:08;887.00;;;813.08;;
51949;SDS011;37974;53.218;6.640;2023-12-04T06:52:34;866.03;;;794.42;;
51949;SDS011;37974;53.218;6.640;2023-12-04T06:55:00;873.67;;;801.75;;
51949;SDS011;37974;53.218;6.640;2023-12-04T06:57:25;906.65;;;830.25;;
51949;SDS011;37974;53.218;6.640;2023-12-04T06:59:51;890.85;;;817.65;;
51949;SDS011;37974;53.218;6.640;2023-12-04T07:02:17;921.30;;;842.00;;
51949;SDS011;37974;53.218;6.640;2023-12-04T07:04:43;863.35;;;793.30;;
51949;SDS011;37974;53.218;6.640;2023-12-04T07:07:09;920.55;;;842.05;;
51949;SDS011;37974;53.218;6.640;2023-12-04T07:09:34;916.13;;;839.10;;
51949;SDS011;37974;53.218;6.640;2023-12-04T07:12:00;887.35;;;813.88;;
51949;SDS011;37974;53.218;6.640;2023-12-04T07:14:27;862.70;;;792.38;;
51949;SDS011;37974;53.218;6.640;2023-12-04T07:16:53;857.08;;;786.90;;
51949;SDS011;37974;53.218;6.640;2023-12-04T07:19:19;888.75;;;813.10;;
51949;SDS011;37974;53.218;6.640;2023-12-04T07:21:45;878.72;;;807.10;;
51949;SDS011;37974;53.218;6.640;2023-12-04T07:24:10;856.72;;;786.05;;
51949;SDS011;37974;53.218;6.640;2023-12-04T07:26:36;849.05;;;780.05;;
51949;SDS011;37974;53.218;6.640;2023-12-04T07:29:05;857.45;;;788.17;;
51949;SDS011;37974;53.218;6.640;2023-12-04T07:31:31;833.00;;;766.10;;
51949;SDS011;37974;53.218;6.640;2023-12-04T07:33:57;857.45;;;787.10;;
51949;SDS011;37974;53.218;6.640;2023-12-04T07:36:25;878.95;;;805.45;;
51949;SDS011;37974;53.218;6.640;2023-12-04T07:38:51;895.10;;;818.70;;
51949;SDS011;37974;53.218;6.640;2023-12-04T07:41:19;883.65;;;811.30;;
51949;SDS011;37974;53.218;6.640;2023-12-04T07:43:45;840.53;;;772.80;;
51949;SDS011;37974;53.218;6.640;2023-12-04T07:46:10;847.90;;;779.05;;
51949;SDS011;37974;53.218;6.640;2023-12-04T07:48:36;843.47;;;775.80;;
51949;SDS011;37974;53.218;6.640;2023-12-04T07:51:03;839.83;;;772.05;;
51949;SDS011;37974;53.218;6.640;2023-12-04T07:53:29;877.95;;;804.47;;
51949;SDS011;37974;53.218;6.640;2023-12-04T07:55:55;865.47;;;794.35;;
51949;SDS011;37974;53.218;6.640;2023-12-04T07:58:20;827.03;;;761.00;;
51949;SDS011;37974;53.218;6.640;2023-12-04T08:00:47;864.05;;;792.97;;
51949;SDS011;37974;53.218;6.640;2023-12-04T08:03:13;849.97;;;780.95;;
51949;SDS011;37974;53.218;6.640;2023-12-04T08:05:38;830.53;;;764.25;;
51949;SDS011;37974;53.218;6.640;2023-12-04T08:08:04;864.95;;;793.42;;
51949;SDS011;37974;53.218;6.640;2023-12-04T08:10:30;854.90;;;784.67;;
51949;SDS011;37974;53.218;6.640;2023-12-04T08:12:56;863.15;;;791.83;;
51949;SDS011;37974;53.218;6.640;2023-12-04T08:15:22;861.08;;;790.90;;
51949;SDS011;37974;53.218;6.640;2023-12-04T08:17:48;853.13;;;783.72;;
51949;SDS011;37974;53.218;6.640;2023-12-04T08:20:13;875.13;;;802.50;;
51949;SDS011;37974;53.218;6.640;2023-12-04T08:22:40;883.35;;;810.30;;
51949;SDS011;37974;53.218;6.640;2023-12-04T08:25:06;892.00;;;816.92;;
51949;SDS011;37974;53.218;6.640;2023-12-04T08:27:33;879.42;;;806.30;;
51949;SDS011;37974;53.218;6.640;2023-12-04T08:29:59;831.45;;;766.58;;
51949;SDS011;37974;53.218;6.640;2023-12-04T08:32:24;817.25;;;753.40;;
51949;SDS011;37974;53.218;6.640;2023-12-04T08:34:52;829.92;;;762.50;;
51949;SDS011;37974;53.218;6.640;2023-12-04T08:37:18;839.17;;;770.65;;
51949;SDS011;37974;53.218;6.640;2023-12-04T08:39:45;843.10;;;775.00;;
51949;SDS011;37974;53.218;6.640;2023-12-04T08:42:11;804.72;;;740.97;;
51949;SDS011;37974;53.218;6.640;2023-12-04T08:44:37;771.55;;;713.05;;
51949;SDS011;37974;53.218;6.640;2023-12-04T08:47:03;800.17;;;736.47;;
51949;SDS011;37974;53.218;6.640;2023-12-04T08:49:29;783.90;;;722.00;;
51949;SDS011;37974;53.218;6.640;2023-12-04T08:51:56;714.75;;;661.63;;
51949;SDS011;37974;53.218;6.640;2023-12-04T08:54:21;687.45;;;636.38;;
51949;SDS011;37974;53.218;6.640;2023-12-04T08:56:47;718.65;;;665.17;;
51949;SDS011;37974;53.218;6.640;2023-12-04T08:59:13;688.92;;;636.20;;
51949;SDS011;37974;53.218;6.640;2023-12-04T09:01:39;654.33;;;606.40;;
51949;SDS011;37974;53.218;6.640;2023-12-04T09:04:04;714.33;;;659.67;;
51949;SDS011;37974;53.218;6.640;2023-12-04T09:06:32;641.70;;;594.20;;
51949;SDS011;37974;53.218;6.640;2023-12-04T09:08:58;694.67;;;642.03;;
51949;SDS011;37974;53.218;6.640;2023-12-04T09:11:23;571.35;;;531.03;;
51949;SDS011;37974;53.218;6.640;2023-12-04T09:13:49;690.17;;;638.53;;
51949;SDS011;37974;53.218;6.640;2023-12-04T09:16:15;621.83;;;575.80;;
51949;SDS011;37974;53.218;6.640;2023-12-04T09:18:41;567.72;;;527.92;;
51949;SDS011;37974;53.218;6.640;2023-12-04T09:21:06;524.55;;;488.45;;
51949;SDS011;37974;53.218;6.640;2023-12-04T09:23:33;568.35;;;528.65;;
51949;SDS011;37974;53.218;6.640;2023-12-04T09:25:59;501.75;;;468.23;;
51949;SDS011;37974;53.218;6.640;2023-12-04T09:28:25;564.55;;;524.92;;
51949;SDS011;37974;53.218;6.640;2023-12-04T09:30:51;515.72;;;480.85;;
51949;SDS011;37974;53.218;6.640;2023-12-04T09:33:17;605.70;;;561.97;;
51949;SDS011;37974;53.218;6.640;2023-12-04T09:35:42;496.63;;;463.40;;
51949;SDS011;37974;53.218;6.640;2023-12-04T09:38:09;579.38;;;538.63;;
51949;SDS011;37974;53.218;6.640;2023-12-04T09:40:35;580.90;;;539.88;;
51949;SDS011;37974;53.218;6.640;2023-12-04T09:43:01;493.55;;;460.27;;
51949;SDS011;37974;53.218;6.640;2023-12-04T09:45:27;522.00;;;485.70;;
51949;SDS011;37974;53.218;6.640;2023-12-04T09:47:55;556.13;;;516.83;;
51949;SDS011;37974;53.218;6.640;2023-12-04T09:50:22;504.65;;;470.60;;
51949;SDS011;37974;53.218;6.640;2023-12-04T09:52:49;525.10;;;488.42;;
51949;SDS011;37974;53.218;6.640;2023-12-04T09:55:15;504.98;;;470.95;;
51949;SDS011;37974;53.218;6.640;2023-12-04T09:57:42;505.67;;;472.15;;
51949;SDS011;37974;53.218;6.640;2023-12-04T10:00:11;526.97;;;490.58;;
51949;SDS011;37974;53.218;6.640;2023-12-04T10:02:39;485.35;;;453.33;;
51949;SDS011;37974;53.218;6.640;2023-12-04T10:05:06;481.80;;;449.95;;
51949;SDS011;37974;53.218;6.640;2023-12-04T10:07:32;488.58;;;455.92;;
51949;SDS011;37974;53.218;6.640;2023-12-04T10:09:58;495.55;;;462.48;;
51949;SDS011;37974;53.218;6.640;2023-12-04T10:12:25;488.50;;;456.05;;
51949;SDS011;37974;53.218;6.640;2023-12-04T10:17:33;458.95;;;428.90;;
51949;SDS011;37974;53.218;6.640;2023-12-04T10:20:04;455.77;;;426.33;;
51949;SDS011;37974;53.218;6.640;2023-12-04T10:22:53;451.40;;;421.85;;
51949;SDS011;37974;53.218;6.640;2023-12-04T10:25:26;447.13;;;417.67;;
51949;SDS011;37974;53.218;6.640;2023-12-04T10:27:54;410.10;;;383.50;;
51949;SDS011;37974;53.218;6.640;2023-12-04T10:30:32;409.58;;;383.42;;
51949;SDS011;37974;53.218;6.640;2023-12-04T10:33:01;407.45;;;381.20;;
51949;SDS011;37974;53.218;6.640;2023-12-04T10:35:28;363.95;;;341.45;;
51949;SDS011;37974;53.218;6.640;2023-12-04T10:37:56;380.02;;;355.95;;
51949;SDS011;37974;53.218;6.640;2023-12-04T10:40:23;309.08;;;290.33;;
51949;SDS011;37974;53.218;6.640;2023-12-04T10:42:49;270.70;;;254.45;;
51949;SDS011;37974;53.218;6.640;2023-12-04T10:45:15;128.70;;;120.25;;
51949;SDS011;37974;53.218;6.640;2023-12-04T10:47:42;106.55;;;99.32;;
51949;SDS011;37974;53.218;6.640;2023-12-04T10:50:10;122.78;;;114.65;;
51949;SDS011;37974;53.218;6.640;2023-12-04T10:52:37;84.97;;;79.07;;
51949;SDS011;37974;53.218;6.640;2023-12-04T10:55:05;89.55;;;83.60;;
51949;SDS011;37974;53.218;6.640;2023-12-04T10:57:37;94.32;;;87.93;;
51949;SDS011;37974;53.218;6.640;2023-12-04T11:00:05;113.28;;;106.00;;
51949;SDS011;37974;53.218;6.640;2023-12-04T11:02:33;114.28;;;106.05;;
51949;SDS011;37974;53.218;6.640;2023-12-04T11:05:04;95.10;;;87.88;;
51949;SDS011;37974;53.218;6.640;2023-12-04T11:07:39;175.20;;;163.73;;
51949;SDS011;37974;53.218;6.640;2023-12-04T11:10:07;215.40;;;202.30;;
51949;SDS011;37974;53.218;6.640;2023-12-04T11:12:35;102.78;;;96.05;;
51949;SDS011;37974;53.218;6.640;2023-12-04T11:15:05;106.07;;;99.18;;
51949;SDS011;37974;53.218;6.640;2023-12-04T11:17:33;183.75;;;172.73;;
51949;SDS011;37974;53.218;6.640;2023-12-04T11:20:04;94.40;;;88.05;;
51949;SDS011;37974;53.218;6.640;2023-12-04T11:22:36;80.35;;;74.90;;
51949;SDS011;37974;53.218;6.640;2023-12-04T11:25:05;80.90;;;75.65;;
51949;SDS011;37974;53.218;6.640;2023-12-04T11:27:32;74.18;;;68.95;;
51949;SDS011;37974;53.218;6.640;2023-12-04T11:29:59;76.72;;;71.53;;
51949;SDS011;37974;53.218;6.640;2023-12-04T11:32:28;93.75;;;87.28;;
51949;SDS011;37974;53.218;6.640;2023-12-04T11:34:55;68.00;;;63.50;;
51949;SDS011;37974;53.218;6.640;2023-12-04T11:37:22;71.25;;;66.55;;
51949;SDS011;37974;53.218;6.640;2023-12-04T11:39:50;78.78;;;73.43;;
51949;SDS011;37974;53.218;6.640;2023-12-04T11:42:21;73.18;;;68.03;;
51949;SDS011;37974;53.218;6.640;2023-12-04T11:44:49;64.78;;;60.15;;
51949;SDS011;37974;53.218;6.640;2023-12-04T11:47:15;67.32;;;62.63;;
51949;SDS011;37974;53.218;6.640;2023-12-04T11:49:41;56.47;;;52.42;;
51949;SDS011;37974;53.218;6.640;2023-12-04T11:52:06;74.75;;;69.55;;
51949;SDS011;37974;53.218;6.640;2023-12-04T11:54:59;62.05;;;57.75;;
51949;SDS011;37974;53.218;6.640;2023-12-04T12:00:13;65.95;;;61.10;;
51949;SDS011;37974;53.218;6.640;2023-12-04T12:02:47;89.95;;;83.97;;
51949;SDS011;37974;53.218;6.640;2023-12-04T12:05:27;71.38;;;66.20;;
51949;SDS011;37974;53.218;6.640;2023-12-04T12:07:53;64.55;;;59.83;;
51949;SDS011;37974;53.218;6.640;2023-12-04T12:10:20;64.13;;;59.63;;
51949;SDS011;37974;53.218;6.640;2023-12-04T12:12:46;67.90;;;63.22;;
51949;SDS011;37974;53.218;6.640;2023-12-04T12:15:12;69.90;;;65.05;;
51949;SDS011;37974;53.218;6.640;2023-12-04T12:17:39;65.72;;;60.85;;
51949;SDS011;37974;53.218;6.640;2023-12-04T12:20:07;64.28;;;59.88;;
51949;SDS011;37974;53.218;6.640;2023-12-04T12:22:34;61.03;;;56.75;;
51949;SDS011;37974;53.218;6.640;2023-12-04T12:25:03;61.30;;;56.85;;
51949;SDS011;37974;53.218;6.640;2023-12-04T12:27:30;62.30;;;57.85;;
51949;SDS011;37974;53.218;6.640;2023-12-04T12:29:56;60.13;;;56.00;;
51949;SDS011;37974;53.218;6.640;2023-12-04T12:32:21;61.83;;;57.45;;
51949;SDS011;37974;53.218;6.640;2023-12-04T12:34:47;63.83;;;59.30;;
51949;SDS011;37974;53.218;6.640;2023-12-04T12:37:14;73.60;;;68.55;;
51949;SDS011;37974;53.218;6.640;2023-12-04T12:39:40;82.20;;;76.75;;
51949;SDS011;37974;53.218;6.640;2023-12-04T12:42:06;92.07;;;86.15;;
51949;SDS011;37974;53.218;6.640;2023-12-04T12:44:38;70.72;;;65.90;;
51949;SDS011;37974;53.218;6.640;2023-12-04T12:47:05;87.07;;;81.10;;
51949;SDS011;37974;53.218;6.640;2023-12-04T12:49:32;76.60;;;71.40;;
51949;SDS011;37974;53.218;6.640;2023-12-04T12:52:00;86.45;;;80.75;;
51949;SDS011;37974;53.218;6.640;2023-12-04T12:54:26;77.72;;;72.47;;
51949;SDS011;37974;53.218;6.640;2023-12-04T12:56:52;75.97;;;70.90;;
51949;SDS011;37974;53.218;6.640;2023-12-04T12:59:18;74.15;;;69.20;;
51949;SDS011;37974;53.218;6.640;2023-12-04T13:01:44;75.80;;;70.85;;
51949;SDS011;37974;53.218;6.640;2023-12-04T13:04:13;83.10;;;77.65;;
51949;SDS011;37974;53.218;6.640;2023-12-04T13:06:40;72.22;;;67.10;;
51949;SDS011;37974;53.218;6.640;2023-12-04T13:09:06;73.63;;;68.43;;
51949;SDS011;37974;53.218;6.640;2023-12-04T13:11:32;86.97;;;81.28;;
51949;SDS011;37974;53.218;6.640;2023-12-04T13:13:58;78.60;;;73.32;;
51949;SDS011;37974;53.218;6.640;2023-12-04T13:16:24;76.25;;;71.15;;
51949;SDS011;37974;53.218;6.640;2023-12-04T13:18:50;72.00;;;66.90;;
51949;SDS011;37974;53.218;6.640;2023-12-04T13:21:16;70.05;;;65.28;;
51949;SDS011;37974;53.218;6.640;2023-12-04T13:23:41;77.10;;;71.80;;
51949;SDS011;37974;53.218;6.640;2023-12-04T13:26:07;107.60;;;100.65;;
51949;SDS011;37974;53.218;6.640;2023-12-04T13:28:36;73.80;;;68.78;;
51949;SDS011;37974;53.218;6.640;2023-12-04T13:31:03;86.45;;;80.63;;
51949;SDS011;37974;53.218;6.640;2023-12-04T13:33:30;105.38;;;98.57;;
51949;SDS011;37974;53.218;6.640;2023-12-04T13:35:57;127.10;;;118.90;;
51949;SDS011;37974;53.218;6.640;2023-12-04T13:38:22;87.75;;;81.93;;
51949;SDS011;37974;53.218;6.640;2023-12-04T13:40:48;95.13;;;88.93;;
51949;SDS011;37974;53.218;6.640;2023-12-04T13:43:26;133.18;;;124.70;;
51949;SDS011;37974;53.218;6.640;2023-12-04T13:46:11;115.75;;;108.25;;
51949;SDS011;37974;53.218;6.640;2023-12-04T13:48:36;106.03;;;99.15;;
51949;SDS011;37974;53.218;6.640;2023-12-04T13:51:06;132.75;;;124.40;;
51949;SDS011;37974;53.218;6.640;2023-12-04T13:53:34;101.53;;;95.05;;
51949;SDS011;37974;53.218;6.640;2023-12-04T13:56:01;97.65;;;91.25;;
51949;SDS011;37974;53.218;6.640;2023-12-04T13:58:26;109.15;;;102.07;;
51949;SDS011;37974;53.218;6.640;2023-12-04T14:01:09;144.70;;;135.57;;